sensor_id;sensor_type;location;lat;lon;timestamp;pressure;altitude;pressure_sealevel;temperature;humidity
37291;BME280;23175;-33.706;151.094;2023-07-13T00:00:34;101013.90;;;14.53;36.70
37291;BME280;23175;-33.706;151.094;2023-07-13T00:03:04;101015.95;;;12.28;39.42
37291;BME280;23175;-33.706;151.094;2023-07-13T00:05:35;101017.84;;;13.02;39.21
37291;BME280;23175;-33.706;151.094;2023-07-13T00:08:05;101012.83;;;15.30;36.57
37291;BME280;23175;-33.706;151.094;2023-07-13T00:10:39;101005.24;;;14.95;35.55
37291;BME280;23175;-33.706;151.094;2023-07-13T00:13:09;100999.56;;;12.89;37.20
37291;BME280;23175;-33.706;151.094;2023-07-13T00:15:38;100995.53;;;14.15;36.67
37291;BME280;23175;-33.706;151.094;2023-07-13T00:18:07;100994.73;;;16.50;33.47
37291;BME280;23175;-33.706;151.094;2023-07-13T00:20:36;100996.98;;;12.33;37.63
37291;BME280;23175;-33.706;151.094;2023-07-13T00:23:06;100995.05;;;12.67;37.22
37291;BME280;23175;-33.706;151.094;2023-07-13T00:25:36;100989.78;;;12.85;35.31
37291;BME280;23175;-33.706;151.094;2023-07-13T00:28:06;100984.58;;;12.20;36.08
37291;BME280;23175;-33.706;151.094;2023-07-13T00:30:36;100984.39;;;13.16;35.53
37291;BME280;23175;-33.706;151.094;2023-07-13T00:33:05;100984.00;;;16.41;32.28
37291;BME280;23175;-33.706;151.094;2023-07-13T00:35:35;100980.49;;;14.53;34.66
37291;BME280;23175;-33.706;151.094;2023-07-13T00:38:04;100980.35;;;12.17;36.64
37291;BME280;23175;-33.706;151.094;2023-07-13T00:40:33;100968.40;;;13.89;34.88
37291;BME280;23175;-33.706;151.094;2023-07-13T00:43:02;100967.21;;;12.53;36.75
37291;BME280;23175;-33.706;151.094;2023-07-13T00:46:36;100957.13;;;12.24;36.88
37291;BME280;23175;-33.706;151.094;2023-07-13T00:49:08;100947.26;;;15.63;31.97
37291;BME280;23175;-33.706;151.094;2023-07-13T00:51:43;100944.94;;;15.36;32.56
37291;BME280;23175;-33.706;151.094;2023-07-13T00:54:17;100937.59;;;15.34;30.79
37291;BME280;23175;-33.706;151.094;2023-07-13T00:56:51;100927.76;;;17.26;27.80
37291;BME280;23175;-33.706;151.094;2023-07-13T00:59:21;100926.83;;;15.27;29.29
37291;BME280;23175;-33.706;151.094;2023-07-13T01:01:52;100924.34;;;14.13;29.29
37291;BME280;23175;-33.706;151.094;2023-07-13T01:04:23;100916.54;;;19.12;25.08
37291;BME280;23175;-33.706;151.094;2023-07-13T01:06:53;100908.12;;;15.22;28.33
37291;BME280;23175;-33.706;151.094;2023-07-13T01:09:22;100901.63;;;16.22;27.96
37291;BME280;23175;-33.706;151.094;2023-07-13T01:11:52;100901.86;;;12.97;31.24
37291;BME280;23175;-33.706;151.094;2023-07-13T01:14:21;100895.87;;;13.57;31.91
37291;BME280;23175;-33.706;151.094;2023-07-13T01:16:50;100896.75;;;16.30;30.04
37291;BME280;23175;-33.706;151.094;2023-07-13T01:19:28;100890.58;;;16.38;30.57
37291;BME280;23175;-33.706;151.094;2023-07-13T01:22:00;100893.12;;;12.53;34.53
37291;BME280;23175;-33.706;151.094;2023-07-13T01:24:29;100893.80;;;15.77;31.64
37291;BME280;23175;-33.706;151.094;2023-07-13T01:26:59;100891.25;;;13.89;32.81
37291;BME280;23175;-33.706;151.094;2023-07-13T01:29:30;100889.61;;;13.61;32.68
37291;BME280;23175;-33.706;151.094;2023-07-13T01:32:00;100893.86;;;15.38;31.68
37291;BME280;23175;-33.706;151.094;2023-07-13T01:34:30;100892.97;;;12.58;34.13
37291;BME280;23175;-33.706;151.094;2023-07-13T01:36:58;100890.24;;;13.71;33.51
37291;BME280;23175;-33.706;151.094;2023-07-13T01:39:28;100893.56;;;14.02;33.73
37291;BME280;23175;-33.706;151.094;2023-07-13T01:41:58;100890.53;;;15.35;31.98
37291;BME280;23175;-33.706;151.094;2023-07-13T01:45:17;100890.14;;;14.03;33.72
37291;BME280;23175;-33.706;151.094;2023-07-13T01:47:46;100887.80;;;12.35;35.10
37291;BME280;23175;-33.706;151.094;2023-07-13T01:50:15;100890.02;;;11.52;36.63
37291;BME280;23175;-33.706;151.094;2023-07-13T01:52:45;100886.37;;;13.25;34.14
37291;BME280;23175;-33.706;151.094;2023-07-13T01:55:14;100883.15;;;14.44;34.31
37291;BME280;23175;-33.706;151.094;2023-07-13T01:57:43;100873.70;;;14.72;33.05
37291;BME280;23175;-33.706;151.094;2023-07-13T02:00:14;100872.93;;;14.96;32.71
37291;BME280;23175;-33.706;151.094;2023-07-13T02:02:44;100876.15;;;13.86;34.10
37291;BME280;23175;-33.706;151.094;2023-07-13T02:05:14;100863.59;;;14.36;32.60
37291;BME280;23175;-33.706;151.094;2023-07-13T02:07:44;100859.17;;;12.82;34.80
37291;BME280;23175;-33.706;151.094;2023-07-13T02:10:13;100850.67;;;11.59;36.44
37291;BME280;23175;-33.706;151.094;2023-07-13T02:12:43;100852.97;;;11.14;36.94
37291;BME280;23175;-33.706;151.094;2023-07-13T02:15:13;100843.32;;;14.15;33.29
37291;BME280;23175;-33.706;151.094;2023-07-13T02:17:41;100839.29;;;11.61;35.16
37291;BME280;23175;-33.706;151.094;2023-07-13T02:20:11;100832.05;;;12.92;35.24
37291;BME280;23175;-33.706;151.094;2023-07-13T02:22:40;100828.36;;;13.91;33.51
37291;BME280;23175;-33.706;151.094;2023-07-13T02:25:09;100822.60;;;14.76;32.60
37291;BME280;23175;-33.706;151.094;2023-07-13T02:27:39;100818.46;;;12.53;33.86
37291;BME280;23175;-33.706;151.094;2023-07-13T02:30:09;100810.55;;;13.49;32.80
37291;BME280;23175;-33.706;151.094;2023-07-13T02:32:39;100806.47;;;13.31;32.86
37291;BME280;23175;-33.706;151.094;2023-07-13T02:35:08;100804.07;;;13.03;32.55
37291;BME280;23175;-33.706;151.094;2023-07-13T02:37:38;100801.75;;;15.75;30.62
37291;BME280;23175;-33.706;151.094;2023-07-13T02:40:08;100798.60;;;14.47;32.19
37291;BME280;23175;-33.706;151.094;2023-07-13T02:42:38;100794.82;;;13.21;33.99
37291;BME280;23175;-33.706;151.094;2023-07-13T02:45:08;100787.00;;;13.91;33.97
37291;BME280;23175;-33.706;151.094;2023-07-13T02:47:37;100784.89;;;12.27;34.55
37291;BME280;23175;-33.706;151.094;2023-07-13T02:50:08;100778.87;;;12.61;34.51
37291;BME280;23175;-33.706;151.094;2023-07-13T02:52:37;100772.33;;;12.63;34.08
37291;BME280;23175;-33.706;151.094;2023-07-13T02:55:06;100771.27;;;16.30;30.78
37291;BME280;23175;-33.706;151.094;2023-07-13T02:57:36;100766.84;;;16.09;30.54
37291;BME280;23175;-33.706;151.094;2023-07-13T03:00:06;100766.17;;;13.82;33.33
37291;BME280;23175;-33.706;151.094;2023-07-13T03:02:36;100763.49;;;12.55;34.58
37291;BME280;23175;-33.706;151.094;2023-07-13T03:05:06;100759.23;;;15.46;32.17
37291;BME280;23175;-33.706;151.094;2023-07-13T03:07:35;100756.51;;;15.56;31.68
37291;BME280;23175;-33.706;151.094;2023-07-13T03:10:06;100753.37;;;15.28;32.18
37291;BME280;23175;-33.706;151.094;2023-07-13T03:12:36;100747.36;;;14.44;32.92
37291;BME280;23175;-33.706;151.094;2023-07-13T03:15:06;100740.51;;;14.64;33.29
37291;BME280;23175;-33.706;151.094;2023-07-13T03:17:35;100733.10;;;16.44;30.68
37291;BME280;23175;-33.706;151.094;2023-07-13T03:20:05;100721.12;;;12.24;34.19
37291;BME280;23175;-33.706;151.094;2023-07-13T03:22:35;100713.69;;;15.92;30.43
37291;BME280;23175;-33.706;151.094;2023-07-13T03:25:05;100714.93;;;15.39;31.48
37291;BME280;23175;-33.706;151.094;2023-07-13T03:27:36;100714.05;;;15.69;31.18
37291;BME280;23175;-33.706;151.094;2023-07-13T03:30:06;100712.32;;;16.58;30.34
37291;BME280;23175;-33.706;151.094;2023-07-13T03:32:35;100709.36;;;15.22;31.14
37291;BME280;23175;-33.706;151.094;2023-07-13T03:35:05;100709.62;;;14.50;31.83
37291;BME280;23175;-33.706;151.094;2023-07-13T03:37:35;100706.54;;;13.77;32.22
37291;BME280;23175;-33.706;151.094;2023-07-13T03:40:05;100702.64;;;15.98;29.50
37291;BME280;23175;-33.706;151.094;2023-07-13T03:42:35;100701.29;;;14.92;31.15
37291;BME280;23175;-33.706;151.094;2023-07-13T03:45:05;100695.09;;;15.18;31.40
37291;BME280;23175;-33.706;151.094;2023-07-13T03:47:35;100691.09;;;16.68;29.78
37291;BME280;23175;-33.706;151.094;2023-07-13T03:50:06;100695.17;;;12.75;33.32
37291;BME280;23175;-33.706;151.094;2023-07-13T03:52:36;100699.49;;;16.43;30.66
37291;BME280;23175;-33.706;151.094;2023-07-13T03:55:05;100696.97;;;13.38;32.55
37291;BME280;23175;-33.706;151.094;2023-07-13T03:57:35;100699.21;;;14.03;31.39
37291;BME280;23175;-33.706;151.094;2023-07-13T04:00:05;100694.27;;;16.73;29.43
37291;BME280;23175;-33.706;151.094;2023-07-13T04:02:35;100696.73;;;13.19;32.44
37291;BME280;23175;-33.706;151.094;2023-07-13T04:05:04;100698.19;;;16.96;28.96
37291;BME280;23175;-33.706;151.094;2023-07-13T04:07:34;100705.73;;;13.70;30.63
37291;BME280;23175;-33.706;151.094;2023-07-13T10:27:35;100821.91;;;11.29;44.01
37291;BME280;23175;-33.706;151.094;2023-07-13T10:30:14;100828.95;;;6.65;51.73
37291;BME280;23175;-33.706;151.094;2023-07-13T10:32:44;100819.79;;;9.87;46.24
37291;BME280;23175;-33.706;151.094;2023-07-13T10:35:15;100824.87;;;8.09;48.48
37291;BME280;23175;-33.706;151.094;2023-07-13T10:37:51;100830.27;;;9.31;47.83
37291;BME280;23175;-33.706;151.094;2023-07-13T10:40:39;100831.38;;;11.06;44.68
37291;BME280;23175;-33.706;151.094;2023-07-13T10:43:15;100831.22;;;10.59;45.21
37291;BME280;23175;-33.706;151.094;2023-07-13T10:45:47;100833.19;;;11.27;44.31
37291;BME280;23175;-33.706;151.094;2023-07-13T10:48:18;100830.80;;;10.47;44.96
37291;BME280;23175;-33.706;151.094;2023-07-13T10:50:50;100834.50;;;11.25;44.20
37291;BME280;23175;-33.706;151.094;2023-07-13T10:53:22;100832.20;;;10.75;44.71
37291;BME280;23175;-33.706;151.094;2023-07-13T10:55:59;100832.52;;;10.64;44.36
37291;BME280;23175;-33.706;151.094;2023-07-13T10:58:34;100837.17;;;10.45;44.40
37291;BME280;23175;-33.706;151.094;2023-07-13T11:01:09;100840.75;;;10.84;43.67
37291;BME280;23175;-33.706;151.094;2023-07-13T11:03:48;100838.42;;;10.79;44.18
37291;BME280;23175;-33.706;151.094;2023-07-13T11:06:37;100842.08;;;10.34;44.80
37291;BME280;23175;-33.706;151.094;2023-07-13T11:09:31;100841.17;;;11.24;43.90
37291;BME280;23175;-33.706;151.094;2023-07-13T11:12:02;100837.46;;;10.95;43.71
37291;BME280;23175;-33.706;151.094;2023-07-13T11:14:36;100837.00;;;11.13;43.65
37291;BME280;23175;-33.706;151.094;2023-07-13T11:17:48;100839.22;;;11.25;43.42
37291;BME280;23175;-33.706;151.094;2023-07-13T11:20:39;100839.48;;;9.80;45.63
37291;BME280;23175;-33.706;151.094;2023-07-13T11:23:20;100844.01;;;10.52;44.43
37291;BME280;23175;-33.706;151.094;2023-07-13T11:25:55;100842.59;;;10.21;44.63
37291;BME280;23175;-33.706;151.094;2023-07-13T11:28:27;100841.14;;;10.37;45.08
37291;BME280;23175;-33.706;151.094;2023-07-13T11:31:15;100839.93;;;10.33;44.32
37291;BME280;23175;-33.706;151.094;2023-07-13T11:33:53;100840.57;;;10.54;44.54
37291;BME280;23175;-33.706;151.094;2023-07-13T11:36:29;100839.45;;;10.35;45.34
37291;BME280;23175;-33.706;151.094;2023-07-13T11:39:03;100839.36;;;9.76;45.21
37291;BME280;23175;-33.706;151.094;2023-07-13T11:41:37;100842.16;;;4.90;52.75
37291;BME280;23175;-33.706;151.094;2023-07-13T11:44:15;100841.31;;;9.38;46.53
37291;BME280;23175;-33.706;151.094;2023-07-13T11:46:49;100840.59;;;7.69;48.63
37291;BME280;23175;-33.706;151.094;2023-07-13T11:49:23;100842.19;;;9.90;45.87
37291;BME280;23175;-33.706;151.094;2023-07-13T11:51:53;100843.78;;;9.64;45.76
37291;BME280;23175;-33.706;151.094;2023-07-13T11:54:25;100841.65;;;10.15;45.41
37291;BME280;23175;-33.706;151.094;2023-07-13T11:56:57;100842.12;;;9.86;45.20
37291;BME280;23175;-33.706;151.094;2023-07-13T11:59:27;100843.36;;;8.38;47.22
37291;BME280;23175;-33.706;151.094;2023-07-13T12:01:58;100841.64;;;9.50;46.25
37291;BME280;23175;-33.706;151.094;2023-07-13T12:04:29;100837.94;;;9.82;45.47
37291;BME280;23175;-33.706;151.094;2023-07-13T12:07:07;100835.21;;;9.46;45.46
37291;BME280;23175;-33.706;151.094;2023-07-13T12:09:36;100839.12;;;9.72;45.68
37291;BME280;23175;-33.706;151.094;2023-07-13T12:12:12;100836.84;;;10.03;45.12
37291;BME280;23175;-33.706;151.094;2023-07-13T12:14:42;100838.65;;;9.83;45.61
37291;BME280;23175;-33.706;151.094;2023-07-13T12:17:17;100837.73;;;10.15;44.83
37291;BME280;23175;-33.706;151.094;2023-07-13T12:19:48;100840.45;;;7.81;47.93
37291;BME280;23175;-33.706;151.094;2023-07-13T12:22:20;100838.83;;;9.90;45.04
37291;BME280;23175;-33.706;151.094;2023-07-13T12:24:50;100838.15;;;8.92;46.41
37291;BME280;23175;-33.706;151.094;2023-07-13T12:27:22;100838.56;;;9.28;46.01
37291;BME280;23175;-33.706;151.094;2023-07-13T12:29:57;100837.30;;;9.67;45.38
37291;BME280;23175;-33.706;151.094;2023-07-13T12:32:27;100838.43;;;9.83;45.24
37291;BME280;23175;-33.706;151.094;2023-07-13T12:35:12;100838.63;;;9.53;45.63
37291;BME280;23175;-33.706;151.094;2023-07-13T12:37:44;100838.23;;;9.32;45.94
37291;BME280;23175;-33.706;151.094;2023-07-13T12:40:18;100840.21;;;7.07;48.67
37291;BME280;23175;-33.706;151.094;2023-07-13T12:42:48;100837.12;;;9.23;46.57
37291;BME280;23175;-33.706;151.094;2023-07-13T12:45:22;100841.67;;;8.68;46.66
37291;BME280;23175;-33.706;151.094;2023-07-13T12:47:55;100839.80;;;9.30;45.74
37291;BME280;23175;-33.706;151.094;2023-07-13T12:50:30;100839.00;;;9.55;45.21
37291;BME280;23175;-33.706;151.094;2023-07-13T12:53:05;100841.52;;;9.82;44.78
37291;BME280;23175;-33.706;151.094;2023-07-13T12:55:43;100839.25;;;9.62;45.10
37291;BME280;23175;-33.706;151.094;2023-07-13T12:58:20;100840.19;;;9.70;45.27
37291;BME280;23175;-33.706;151.094;2023-07-13T13:00:53;100837.45;;;9.17;45.03
37291;BME280;23175;-33.706;151.094;2023-07-13T13:03:26;100840.69;;;8.36;46.49
37291;BME280;23175;-33.706;151.094;2023-07-13T13:06:02;100843.00;;;9.96;44.19
37291;BME280;23175;-33.706;151.094;2023-07-13T13:08:32;100842.51;;;9.20;45.37
37291;BME280;23175;-33.706;151.094;2023-07-13T13:11:02;100844.39;;;9.73;44.58
37291;BME280;23175;-33.706;151.094;2023-07-13T13:13:32;100844.37;;;9.66;44.74
37291;BME280;23175;-33.706;151.094;2023-07-13T13:16:07;100837.31;;;9.58;44.49
37291;BME280;23175;-33.706;151.094;2023-07-13T13:18:39;100835.93;;;9.41;45.01
37291;BME280;23175;-33.706;151.094;2023-07-13T13:21:10;100831.03;;;9.54;44.74
37291;BME280;23175;-33.706;151.094;2023-07-13T13:23:39;100829.37;;;8.61;46.46
37291;BME280;23175;-33.706;151.094;2023-07-13T13:26:12;100824.60;;;9.11;45.79
37291;BME280;23175;-33.706;151.094;2023-07-13T13:28:42;100821.80;;;9.05;46.35
37291;BME280;23175;-33.706;151.094;2023-07-13T13:31:13;100815.98;;;9.61;45.18
37291;BME280;23175;-33.706;151.094;2023-07-13T13:33:43;100811.69;;;9.46;44.66
37291;BME280;23175;-33.706;151.094;2023-07-13T13:36:18;100805.87;;;9.28;44.91
37291;BME280;23175;-33.706;151.094;2023-07-13T13:38:49;100800.01;;;6.92;49.42
37291;BME280;23175;-33.706;151.094;2023-07-13T13:41:19;100794.93;;;5.62;49.70
37291;BME280;23175;-33.706;151.094;2023-07-13T13:43:48;100798.72;;;7.77;48.16
37291;BME280;23175;-33.706;151.094;2023-07-13T13:46:20;100793.77;;;8.28;46.46
37291;BME280;23175;-33.706;151.094;2023-07-13T13:48:50;100795.30;;;8.03;46.75
37291;BME280;23175;-33.706;151.094;2023-07-13T13:51:21;100794.22;;;6.65;48.46
37291;BME280;23175;-33.706;151.094;2023-07-13T13:53:51;100786.70;;;7.40;48.33
37291;BME280;23175;-33.706;151.094;2023-07-13T13:56:21;100778.18;;;8.60;45.89
37291;BME280;23175;-33.706;151.094;2023-07-13T13:58:50;100773.25;;;8.49;46.49
37291;BME280;23175;-33.706;151.094;2023-07-13T14:01:21;100774.78;;;6.72;48.93
37291;BME280;23175;-33.706;151.094;2023-07-13T14:03:50;100768.35;;;9.18;45.29
37291;BME280;23175;-33.706;151.094;2023-07-13T14:06:20;100770.59;;;6.92;49.30
37291;BME280;23175;-33.706;151.094;2023-07-13T14:08:50;100765.77;;;9.00;44.89
37291;BME280;23175;-33.706;151.094;2023-07-13T14:11:21;100760.51;;;8.59;46.08
37291;BME280;23175;-33.706;151.094;2023-07-13T14:13:54;100758.37;;;8.75;45.29
37291;BME280;23175;-33.706;151.094;2023-07-13T14:16:26;100755.12;;;8.80;45.02
37291;BME280;23175;-33.706;151.094;2023-07-13T14:18:58;100749.93;;;8.15;46.44
37291;BME280;23175;-33.706;151.094;2023-07-13T14:21:28;100750.32;;;6.39;48.77
37291;BME280;23175;-33.706;151.094;2023-07-13T14:23:57;100744.58;;;9.31;45.51
37291;BME280;23175;-33.706;151.094;2023-07-13T14:26:36;100746.90;;;7.26;48.80
37291;BME280;23175;-33.706;151.094;2023-07-13T14:29:12;100737.93;;;8.98;46.06
37291;BME280;23175;-33.706;151.094;2023-07-13T14:31:43;100733.29;;;8.61;45.45
37291;BME280;23175;-33.706;151.094;2023-07-13T14:34:13;100733.33;;;5.87;49.82
37291;BME280;23175;-33.706;151.094;2023-07-13T14:36:44;100730.21;;;5.79;49.80
37291;BME280;23175;-33.706;151.094;2023-07-13T14:39:16;100724.32;;;8.16;46.83
37291;BME280;23175;-33.706;151.094;2023-07-13T14:41:49;100722.92;;;6.77;48.46
37291;BME280;23175;-33.706;151.094;2023-07-13T14:44:23;100716.75;;;7.84;46.68
37291;BME280;23175;-33.706;151.094;2023-07-13T14:46:53;100712.94;;;9.24;44.63
37291;BME280;23175;-33.706;151.094;2023-07-13T14:49:28;100707.53;;;8.58;44.96
37291;BME280;23175;-33.706;151.094;2023-07-13T14:52:00;100704.88;;;9.16;44.36
37291;BME280;23175;-33.706;151.094;2023-07-13T14:54:30;100702.61;;;9.17;44.27
37291;BME280;23175;-33.706;151.094;2023-07-13T14:56:59;100696.34;;;8.96;44.70
37291;BME280;23175;-33.706;151.094;2023-07-13T14:59:28;100695.05;;;7.73;46.16
37291;BME280;23175;-33.706;151.094;2023-07-13T15:01:57;100691.43;;;8.66;46.12
37291;BME280;23175;-33.706;151.094;2023-07-13T15:04:27;100690.11;;;8.12;46.19
37291;BME280;23175;-33.706;151.094;2023-07-13T15:06:57;100687.02;;;9.29;44.68
37291;BME280;23175;-33.706;151.094;2023-07-13T15:09:27;100684.69;;;8.24;45.04
37291;BME280;23175;-33.706;151.094;2023-07-13T15:11:58;100683.67;;;9.62;43.25
37291;BME280;23175;-33.706;151.094;2023-07-13T15:14:28;100685.37;;;10.12;42.66
37291;BME280;23175;-33.706;151.094;2023-07-13T15:16:57;100688.84;;;8.72;45.02
37291;BME280;23175;-33.706;151.094;2023-07-13T15:19:27;100689.58;;;9.45;43.71
37291;BME280;23175;-33.706;151.094;2023-07-13T15:21:57;100692.85;;;8.80;44.54
37291;BME280;23175;-33.706;151.094;2023-07-13T15:24:27;100690.72;;;8.02;45.63
37291;BME280;23175;-33.706;151.094;2023-07-13T15:26:57;100691.96;;;7.43;46.62
37291;BME280;23175;-33.706;151.094;2023-07-13T15:29:26;100687.25;;;8.88;44.58
37291;BME280;23175;-33.706;151.094;2023-07-13T15:31:55;100685.75;;;8.41;45.33
37291;BME280;23175;-33.706;151.094;2023-07-13T15:34:26;100683.64;;;8.69;44.78
37291;BME280;23175;-33.706;151.094;2023-07-13T15:36:56;100679.06;;;8.16;45.23
37291;BME280;23175;-33.706;151.094;2023-07-13T15:39:25;100673.16;;;9.16;44.21
37291;BME280;23175;-33.706;151.094;2023-07-13T15:41:54;100675.20;;;8.88;44.19
37291;BME280;23175;-33.706;151.094;2023-07-13T15:44:27;100670.55;;;8.43;44.40
37291;BME280;23175;-33.706;151.094;2023-07-13T15:46:57;100666.38;;;8.46;44.32
37291;BME280;23175;-33.706;151.094;2023-07-13T15:49:27;100671.33;;;6.03;47.82
37291;BME280;23175;-33.706;151.094;2023-07-13T15:51:56;100668.49;;;9.35;42.99
37291;BME280;23175;-33.706;151.094;2023-07-13T15:54:26;100667.36;;;8.93;44.96
37291;BME280;23175;-33.706;151.094;2023-07-13T15:56:56;100658.90;;;8.51;44.65
37291;BME280;23175;-33.706;151.094;2023-07-13T15:59:29;100662.34;;;8.22;45.66
37291;BME280;23175;-33.706;151.094;2023-07-13T16:01:59;100654.81;;;9.43;43.73
37291;BME280;23175;-33.706;151.094;2023-07-13T16:04:29;100653.32;;;8.04;45.09
37291;BME280;23175;-33.706;151.094;2023-07-13T16:06:58;100653.04;;;10.12;41.72
37291;BME280;23175;-33.706;151.094;2023-07-13T16:09:28;100659.03;;;8.62;44.01
37291;BME280;23175;-33.706;151.094;2023-07-13T16:11:57;100652.06;;;8.57;44.13
37291;BME280;23175;-33.706;151.094;2023-07-13T16:14:26;100655.56;;;6.94;47.21
37291;BME280;23175;-33.706;151.094;2023-07-13T16:16:56;100650.33;;;9.30;43.23
37291;BME280;23175;-33.706;151.094;2023-07-13T16:19:25;100646.70;;;8.55;44.31
37291;BME280;23175;-33.706;151.094;2023-07-13T16:21:54;100639.37;;;9.10;42.60
37291;BME280;23175;-33.706;151.094;2023-07-13T16:24:24;100635.09;;;7.50;45.11
37291;BME280;23175;-33.706;151.094;2023-07-13T16:26:53;100637.69;;;6.70;46.05
37291;BME280;23175;-33.706;151.094;2023-07-13T16:29:25;100638.06;;;9.26;41.63
37291;BME280;23175;-33.706;151.094;2023-07-13T16:32:04;100635.95;;;7.61;43.44
37291;BME280;23175;-33.706;151.094;2023-07-13T16:34:35;100631.39;;;8.57;41.41
37291;BME280;23175;-33.706;151.094;2023-07-13T16:37:15;100627.62;;;8.84;41.10
37291;BME280;23175;-33.706;151.094;2023-07-13T16:39:48;100630.89;;;7.74;41.99
37291;BME280;23175;-33.706;151.094;2023-07-13T16:42:17;100627.47;;;9.24;40.47
37291;BME280;23175;-33.706;151.094;2023-07-13T16:44:46;100623.83;;;8.06;41.71
37291;BME280;23175;-33.706;151.094;2023-07-13T16:47:17;100616.27;;;6.98;42.86
37291;BME280;23175;-33.706;151.094;2023-07-13T16:49:46;100610.84;;;8.03;41.63
37291;BME280;23175;-33.706;151.094;2023-07-13T16:52:17;100610.32;;;7.10;42.39
37291;BME280;23175;-33.706;151.094;2023-07-13T16:54:48;100607.36;;;7.86;42.11
37291;BME280;23175;-33.706;151.094;2023-07-13T16:57:30;100608.79;;;7.47;42.30
37291;BME280;23175;-33.706;151.094;2023-07-13T16:59:59;100601.77;;;9.12;41.89
37291;BME280;23175;-33.706;151.094;2023-07-13T17:02:37;100595.39;;;8.88;40.47
37291;BME280;23175;-33.706;151.094;2023-07-13T17:05:08;100596.05;;;9.58;38.81
37291;BME280;23175;-33.706;151.094;2023-07-13T17:07:38;100597.43;;;10.66;38.77
37291;BME280;23175;-33.706;151.094;2023-07-13T17:10:17;100593.31;;;9.55;39.85
37291;BME280;23175;-33.706;151.094;2023-07-13T17:12:47;100594.15;;;11.23;37.48
37291;BME280;23175;-33.706;151.094;2023-07-13T17:15:17;100590.34;;;9.18;40.26
37291;BME280;23175;-33.706;151.094;2023-07-13T17:17:48;100588.02;;;8.89;40.20
37291;BME280;23175;-33.706;151.094;2023-07-13T17:20:21;100582.85;;;8.89;39.66
37291;BME280;23175;-33.706;151.094;2023-07-13T17:22:51;100576.25;;;9.66;38.79
37291;BME280;23175;-33.706;151.094;2023-07-13T17:25:22;100575.33;;;9.58;39.44
37291;BME280;23175;-33.706;151.094;2023-07-13T17:27:51;100568.69;;;10.13;39.36
37291;BME280;23175;-33.706;151.094;2023-07-13T17:30:22;100564.37;;;8.15;41.46
37291;BME280;23175;-33.706;151.094;2023-07-13T17:32:52;100567.96;;;10.33;38.58
37291;BME280;23175;-33.706;151.094;2023-07-13T17:35:25;100568.83;;;7.16;42.86
37291;BME280;23175;-33.706;151.094;2023-07-13T17:37:56;100562.37;;;7.81;41.74
37291;BME280;23175;-33.706;151.094;2023-07-13T17:40:25;100560.58;;;7.84;42.14
37291;BME280;23175;-33.706;151.094;2023-07-13T17:43:00;100566.29;;;6.58;43.59
37291;BME280;23175;-33.706;151.094;2023-07-13T17:45:30;100564.54;;;8.95;40.85
37291;BME280;23175;-33.706;151.094;2023-07-13T17:48:01;100562.77;;;8.39;41.71
37291;BME280;23175;-33.706;151.094;2023-07-13T17:50:31;100566.01;;;8.43;41.13
37291;BME280;23175;-33.706;151.094;2023-07-13T17:53:02;100562.30;;;8.97;40.09
37291;BME280;23175;-33.706;151.094;2023-07-13T17:55:31;100567.85;;;6.75;44.12
37291;BME280;23175;-33.706;151.094;2023-07-13T17:58:01;100566.01;;;8.70;41.89
37291;BME280;23175;-33.706;151.094;2023-07-13T18:00:33;100564.90;;;10.26;40.10
37291;BME280;23175;-33.706;151.094;2023-07-13T18:03:04;100564.28;;;7.74;41.65
37291;BME280;23175;-33.706;151.094;2023-07-13T18:05:36;100564.82;;;9.41;40.47
37291;BME280;23175;-33.706;151.094;2023-07-13T18:08:05;100565.74;;;10.72;39.63
37291;BME280;23175;-33.706;151.094;2023-07-13T18:10:35;100563.69;;;10.57;39.44
37291;BME280;23175;-33.706;151.094;2023-07-13T18:13:04;100566.16;;;10.67;39.12
37291;BME280;23175;-33.706;151.094;2023-07-13T18:15:34;100566.75;;;8.45;42.61
37291;BME280;23175;-33.706;151.094;2023-07-13T18:18:03;100567.99;;;9.08;41.86
37291;BME280;23175;-33.706;151.094;2023-07-13T18:20:33;100572.75;;;9.06;41.96
37291;BME280;23175;-33.706;151.094;2023-07-13T18:23:02;100578.47;;;7.44;45.14
37291;BME280;23175;-33.706;151.094;2023-07-13T18:25:31;100574.76;;;7.69;44.16
37291;BME280;23175;-33.706;151.094;2023-07-13T18:28:01;100577.85;;;9.22;42.34
37291;BME280;23175;-33.706;151.094;2023-07-13T18:30:30;100580.24;;;7.71;44.59
37291;BME280;23175;-33.706;151.094;2023-07-13T18:33:00;100581.07;;;6.83;45.11
37291;BME280;23175;-33.706;151.094;2023-07-13T18:35:32;100582.21;;;7.34;44.63
37291;BME280;23175;-33.706;151.094;2023-07-13T18:38:02;100583.75;;;7.29;45.28
37291;BME280;23175;-33.706;151.094;2023-07-13T18:40:31;100581.75;;;8.76;43.19
37291;BME280;23175;-33.706;151.094;2023-07-13T18:43:00;100584.84;;;7.76;43.91
37291;BME280;23175;-33.706;151.094;2023-07-13T18:45:29;100578.82;;;8.69;42.98
37291;BME280;23175;-33.706;151.094;2023-07-13T18:47:58;100580.61;;;8.34;44.45
37291;BME280;23175;-33.706;151.094;2023-07-13T18:50:30;100576.79;;;7.37;44.24
37291;BME280;23175;-33.706;151.094;2023-07-13T18:53:00;100573.04;;;7.85;43.70
37291;BME280;23175;-33.706;151.094;2023-07-13T18:55:30;100569.01;;;6.50;45.25
37291;BME280;23175;-33.706;151.094;2023-07-13T18:57:59;100572.32;;;5.44;46.76
37291;BME280;23175;-33.706;151.094;2023-07-13T19:00:29;100571.08;;;7.51;44.09
37291;BME280;23175;-33.706;151.094;2023-07-13T19:02:58;100571.28;;;7.58;44.18
37291;BME280;23175;-33.706;151.094;2023-07-13T19:05:33;100574.85;;;5.41;46.67